地図

経路データ

SID SEASON NUMBER BASIN SUBBASIN NAME ISO_TIME NATURE LAT LON WMO_WIND WMO_PRES WMO_AGENCY TRACK_TYPE DIST2LAND LANDFALL IFLAG USA_AGENCY USA_ATCF_ID USA_LAT USA_LON USA_RECORD USA_STATUS USA_WIND USA_PRES USA_SSHS USA_R34_NE USA_R34_SE USA_R34_SW USA_R34_NW USA_R50_NE USA_R50_SE USA_R50_SW USA_R50_NW USA_R64_NE USA_R64_SE USA_R64_SW USA_R64_NW USA_POCI USA_ROCI USA_RMW USA_EYE TOKYO_LAT TOKYO_LON TOKYO_GRADE TOKYO_WIND TOKYO_PRES TOKYO_R50_DIR TOKYO_R50_LONG TOKYO_R50_SHORT TOKYO_R30_DIR TOKYO_R30_LONG TOKYO_R30_SHORT TOKYO_LAND CMA_LAT CMA_LON CMA_CAT CMA_WIND CMA_PRES HKO_LAT HKO_LON HKO_CAT HKO_WIND HKO_PRES NEWDELHI_LAT NEWDELHI_LON NEWDELHI_GRADE NEWDELHI_WIND NEWDELHI_PRES NEWDELHI_CI NEWDELHI_DP NEWDELHI_POCI REUNION_LAT REUNION_LON REUNION_TYPE REUNION_WIND REUNION_PRES REUNION_TNUM REUNION_CI REUNION_RMW REUNION_R34_NE REUNION_R34_SE REUNION_R34_SW REUNION_R34_NW REUNION_R50_NE REUNION_R50_SE REUNION_R50_SW REUNION_R50_NW REUNION_R64_NE REUNION_R64_SE REUNION_R64_SW REUNION_R64_NW BOM_LAT BOM_LON BOM_TYPE BOM_WIND BOM_PRES BOM_TNUM BOM_CI BOM_RMW BOM_R34_NE BOM_R34_SE BOM_R34_SW BOM_R34_NW BOM_R50_NE BOM_R50_SE BOM_R50_SW BOM_R50_NW BOM_R64_NE BOM_R64_SE BOM_R64_SW BOM_R64_NW BOM_ROCI BOM_POCI BOM_EYE BOM_POS_METHOD BOM_PRES_METHOD NADI_LAT NADI_LON NADI_CAT NADI_WIND NADI_PRES WELLINGTON_LAT WELLINGTON_LON WELLINGTON_WIND WELLINGTON_PRES DS824_LAT DS824_LON DS824_STAGE DS824_WIND DS824_PRES TD9636_LAT TD9636_LON TD9636_STAGE TD9636_WIND TD9636_PRES TD9635_LAT TD9635_LON TD9635_WIND TD9635_PRES TD9635_ROCI NEUMANN_LAT NEUMANN_LON NEUMANN_CLASS NEUMANN_WIND NEUMANN_PRES MLC_LAT MLC_LON MLC_CLASS MLC_WIND MLC_PRES USA_GUST BOM_GUST BOM_GUST_PER REUNION_GUST REUNION_GUST_PER USA_SEAHGT USA_SEARAD_NE USA_SEARAD_SE USA_SEARAD_SW USA_SEARAD_NW STORM_SPEED STORM_DIR
1941198N10151 1941 35 WP MM NOT_NAMED 1941-07-16 21:00:00 NR 10.2000 151.300 main 1444 1444 __________O___ -1 10.2000 151.300 4 11 325
1941198N10151 1941 35 WP MM NOT_NAMED 1941-07-17 00:00:00 NR 10.6565 150.971 main 1488 1485 __________P___ -1 10.6565 150.971 4 11 325
1941198N10151 1941 35 WP MM NOT_NAMED 1941-07-17 03:00:00 NR 11.1103 150.653 main 1523 1520 __________P___ -1 11.1103 150.653 4 11 326
1941198N10151 1941 35 WP MM NOT_NAMED 1941-07-17 06:00:00 NR 11.5589 150.359 main 1570 1568 __________P___ -1 11.5589 150.359 4 10 329
1941198N10151 1941 35 WP MM NOT_NAMED 1941-07-17 09:00:00 NR 12.0000 150.100 main 1607 1607 __________O___ -1 12.0000 150.100 4 10 332
1941198N10151 1941 35 WP MM NOT_NAMED 1941-07-17 12:00:00 NR 12.4352 149.886 main 1647 1647 __________P___ -1 12.4352 149.886 4 10 337
1941198N10151 1941 35 WP MM NOT_NAMED 1941-07-17 15:00:00 NR 12.8824 149.717 main 1699 1699 __________P___ -1 12.8824 149.717 4 10 343
1941198N10151 1941 35 WP MM NOT_NAMED 1941-07-17 18:00:00 NR 13.3634 149.590 main 1753 1753 __________P___ -1 13.3634 149.590 4 10 348
1941198N10151 1941 35 WP MM NOT_NAMED 1941-07-17 21:00:00 NR 13.9000 149.500 main 1807 1807 __________O___ -1 13.9000 149.500 4 12 355
1941198N10151 1941 35 WP MM NOT_NAMED 1941-07-18 00:00:00 NR 14.5377 149.474 main 1874 1874 __________P___ -1 14.5377 149.474 4 13 0
1941198N10151 1941 35 WP MM NOT_NAMED 1941-07-18 03:00:00 NR 15.2273 149.478 main 1951 1951 __________P___ -1 15.2273 149.478 4 14 0
1941198N10151 1941 35 WP MM NOT_NAMED 1941-07-18 06:00:00 NR 15.9283 149.468 main 2029 2029 __________P___ -1 15.9283 149.468 4 14 357
1941198N10151 1941 35 WP MM NOT_NAMED 1941-07-18 09:00:00 NR 16.6000 149.400 main 2106 2106 __________O___ -1 16.6000 149.400 4 13 351
1941198N10151 1941 35 WP MM NOT_NAMED 1941-07-18 12:00:00 NR 17.2303 149.244 main 2170 2111 __________P___ -1 17.2303 149.244 4 13 343
1941198N10151 1941 35 WP MM NOT_NAMED 1941-07-18 15:00:00 NR 17.8195 149.021 main 2111 2051 __________P___ -1 17.8195 149.021 4 12 337
1941198N10151 1941 35 WP MM NOT_NAMED 1941-07-18 18:00:00 NR 18.3490 148.737 main 2047 1983 __________P___ -1 18.3490 148.737 4 11 329
1941198N10151 1941 35 WP MM NOT_NAMED 1941-07-18 21:00:00 NR 18.8000 148.400 main 1983 1940 __________O___ -1 18.8000 148.400 4 10 321
1941198N10151 1941 35 WP MM NOT_NAMED 1941-07-19 00:00:00 NR 19.1495 148.057 main 1940 1893 __________P___ -1 19.1495 148.057 4 9 312
1941198N10151 1941 35 WP MM NOT_NAMED 1941-07-19 03:00:00 NR 19.4242 147.661 main 1893 1852 __________P___ -1 19.4242 147.661 4 10 303
1941198N10151 1941 35 WP MM NOT_NAMED 1941-07-19 06:00:00 NR 19.6617 147.210 main 1842 1802 __________P___ -1 19.6617 147.210 4 10 298
1941198N10151 1941 35 WP MM NOT_NAMED 1941-07-19 09:00:00 NR 19.9000 146.700 main 1802 1750 __________O___ -1 19.9000 146.700 4 12 296
1941198N10151 1941 35 WP MM NOT_NAMED 1941-07-19 12:00:00 NR 20.1816 146.100 main 1750 1698 __________P___ -1 20.1816 146.100 4 13 296
1941198N10151 1941 35 WP MM NOT_NAMED 1941-07-19 15:00:00 NR 20.4714 145.450 main 1698 1645 __________P___ -1 20.4714 145.450 4 14 296
1941198N10151 1941 35 WP MM NOT_NAMED 1941-07-19 18:00:00 NR 20.7754 144.800 main 1645 1596 __________P___ -1 20.7754 144.800 4 13 298
1941198N10151 1941 35 WP MM NOT_NAMED 1941-07-19 21:00:00 NR 21.1000 144.200 main 1596 1548 __________O___ -1 21.1000 144.200 4 12 301
1941198N10151 1941 35 WP MM NOT_NAMED 1941-07-20 00:00:00 NR 21.3959 143.684 main 1548 1499 __________P___ -1 21.3959 143.684 4 11 305
1941198N10151 1941 35 WP MM NOT_NAMED 1941-07-20 03:00:00 NR 21.7219 143.229 main 1494 1440 __________P___ -1 21.7219 143.229 4 11 312
1941198N10151 1941 35 WP MM NOT_NAMED 1941-07-20 06:00:00 NR 22.1119 142.834 main 1436 1372 __________P___ -1 22.1119 142.834 4 11 322
1941198N10151 1941 35 WP MM NOT_NAMED 1941-07-20 09:00:00 NR 22.6000 142.500 main 1372 1298 __________O___ -1 22.6000 142.500 4 13 333
1941198N10151 1941 35 WP MM NOT_NAMED 1941-07-20 12:00:00 NR 23.2401 142.213 main 1298 1219 __________P___ -1 23.2401 142.213 4 15 341
1941198N10151 1941 35 WP MM NOT_NAMED 1941-07-20 15:00:00 NR 23.9744 141.982 main 1210 1131 __________P___ -1 23.9744 141.982 4 16 345
1941198N10151 1941 35 WP MM NOT_NAMED 1941-07-20 18:00:00 NR 24.7465 141.785 main 1131 1044 __________P___ -1 24.7465 141.785 4 16 347
1941198N10151 1941 35 WP MM NOT_NAMED 1941-07-20 21:00:00 NR 25.5000 141.600 main 1044 976 __________O___ -1 25.5000 141.600 4 14 346
1941198N10151 1941 35 WP MM NOT_NAMED 1941-07-21 00:00:00 NR 26.1330 141.415 main 976 909 __________P___ -1 26.1330 141.415 4 13 345
1941198N10151 1941 35 WP MM NOT_NAMED 1941-07-21 03:00:00 NR 26.7418 141.234 main 909 840 __________P___ -1 26.7418 141.234 4 13 344
1941198N10151 1941 35 WP MM NOT_NAMED 1941-07-21 06:00:00 NR 27.3548 141.036 main 830 760 __________P___ -1 27.3548 141.036 4 13 343
1941198N10151 1941 35 WP MM NOT_NAMED 1941-07-21 09:00:00 NR 28.0000 140.800 main 760 677 __________O___ -1 28.0000 140.800 4 14 339
1941198N10151 1941 35 WP MM NOT_NAMED 1941-07-21 12:00:00 NR 28.6907 140.439 main 675 592 __________P___ -1 28.6907 140.439 4 16 335
1941198N10151 1941 35 WP MM NOT_NAMED 1941-07-21 15:00:00 NR 29.4190 140.045 main 590 508 __________P___ -1 29.4190 140.045 4 16 336
1941198N10151 1941 35 WP MM NOT_NAMED 1941-07-21 18:00:00 NR 30.1877 139.678 main 497 405 __________P___ -1 30.1877 139.678 4 17 341
1941198N10151 1941 35 WP MM NOT_NAMED 1941-07-21 21:00:00 NR 31.0000 139.400 main 405 315 __________O___ -1 31.0000 139.400 4 17 348
1941198N10151 1941 35 WP MM NOT_NAMED 1941-07-22 00:00:00 NR 31.8480 139.250 main 315 215 __________P___ -1 31.8480 139.250 4 18 355
1941198N10151 1941 35 WP MM NOT_NAMED 1941-07-22 03:00:00 NR 32.7391 139.206 main 215 117 __________P___ -1 32.7391 139.206 4 18 0
1941198N10151 1941 35 WP MM NOT_NAMED 1941-07-22 06:00:00 NR 33.6606 139.258 main 110 42 __________P___ -1 33.6606 139.258 4 19 5
1941198N10151 1941 35 WP MM NOT_NAMED 1941-07-22 09:00:00 NR 34.6000 139.400 main 38 0 __________O___ -1 34.6000 139.400 4 19 8
1941198N10151 1941 35 WP MM NOT_NAMED 1941-07-22 12:00:00 NR 35.5794 139.564 main 0 0 __________P___ -1 35.5794 139.564 4 20 10
1941198N10151 1941 35 WP MM NOT_NAMED 1941-07-22 15:00:00 NR 36.5661 139.820 main 0 0 __________P___ -1 36.5661 139.820 4 20 14
1941198N10151 1941 35 WP MM NOT_NAMED 1941-07-22 18:00:00 NR 37.5198 140.166 main 0 0 __________P___ -1 37.5198 140.166 4 19 19
1941198N10151 1941 35 WP MM NOT_NAMED 1941-07-22 21:00:00 NR 38.4000 140.600 main 0 0 __________O___ -1 38.4000 140.600 4 18 22
1941198N10151 1941 35 WP MM NOT_NAMED 1941-07-23 00:00:00 NR 39.2006 141.050 main 0 0 __________P___ -1 39.2006 141.050 4 17 27
1941198N10151 1941 35 WP MM NOT_NAMED 1941-07-23 03:00:00 NR 39.9186 141.592 main 0 0 __________P___ -1 39.9186 141.592 4 16 34
1941198N10151 1941 35 WP MM NOT_NAMED 1941-07-23 06:00:00 NR 40.5525 142.238 main 47 47 __________P___ -1 40.5525 142.238 4 16 42
1941198N10151 1941 35 WP MM NOT_NAMED 1941-07-23 09:00:00 NR 41.1000 143.000 main 90 50 __________O___ -1 41.1000 143.000 4 16 48
1941198N10151 1941 35 WP MM NOT_NAMED 1941-07-23 12:00:00 NR 41.6231 143.819 main 59 59 __________P___ -1 41.6231 143.819 4 16 54
1941198N10151 1941 35 WP MM NOT_NAMED 1941-07-23 15:00:00 NR 42.0543 144.757 main 88 78 __________P___ -1 42.0543 144.757 4 17 63
1941198N10151 1941 35 WP MM NOT_NAMED 1941-07-23 18:00:00 NR 42.3835 145.817 main 92 91 __________P___ -1 42.3835 145.817 4 17 72
1941198N10151 1941 35 WP MM NOT_NAMED 1941-07-23 21:00:00 NR 42.6000 147.000 main 137 137 __________O___ -1 42.6000 147.000 4 19 79
1941198N10151 1941 35 WP MM NOT_NAMED 1941-07-24 00:00:00 NR 42.7359 148.296 main 225 225 __________P___ -1 42.7359 148.296 4 20 86
1941198N10151 1941 35 WP MM NOT_NAMED 1941-07-24 03:00:00 NR 42.7539 149.698 main 278 278 __________P___ -1 42.7539 149.698 4 21 92
1941198N10151 1941 35 WP MM NOT_NAMED 1941-07-24 06:00:00 NR 42.6693 151.150 main 341 341 __________P___ -1 42.6693 151.150 4 21 97
1941198N10151 1941 35 WP MM NOT_NAMED 1941-07-24 09:00:00 NR 42.5000 152.600 main 414 414 __________O___ -1 42.5000 152.600 4 21 101
1941198N10151 1941 35 WP MM NOT_NAMED 1941-07-24 12:00:00 NR 42.2647 154.007 main 502 502 __________P___ -1 42.2647 154.007 4 21 104
1941198N10151 1941 35 WP MM NOT_NAMED 1941-07-24 15:00:00 NR 41.9778 155.369 main 602 602 __________P___ -1 41.9778 155.369 4 21 107
1941198N10151 1941 35 WP MM NOT_NAMED 1941-07-24 18:00:00 NR 41.6521 156.697 main 699 699 __________P___ -1 41.6521 156.697 4 21 109
1941198N10151 1941 35 WP MM NOT_NAMED 1941-07-24 21:00:00 NR 41.3000 158.000 main 808 __________O___ -1 41.3000 158.000 4 21 110

デジタル台風データ・検索

IBTrACS Databaseについて

本データベースは、米国NOAAが公開する1842年以降の世界の熱帯低気圧のベストトラックデータアーカイブInternational Best Track Archive for Climate Stewardship (IBTrACS)を、ウェブで閲覧しやすい形式に変換したものです。

最終更新日:2021-12-03